createdAt,value
2018-02-24T00:02:29.753Z,51.97
2018-02-24T00:07:31.882Z,51.99
2018-02-24T00:12:33.262Z,52.37
2018-02-24T00:17:34.579Z,52.75
2018-02-24T00:22:41.787Z,52.87
2018-02-24T00:27:43.895Z,53.28
2018-02-24T00:32:46.060Z,53.03
2018-02-24T00:37:47.404Z,53.57
2018-02-24T00:42:48.834Z,53.06
2018-02-24T00:47:50.197Z,53.76
2018-02-24T00:52:51.528Z,53.58
2018-02-24T00:57:52.908Z,53.54
2018-02-24T01:02:54.280Z,53.39
2018-02-24T01:07:55.705Z,53.73
2018-02-24T01:12:57.041Z,53.63
2018-02-24T01:17:58.400Z,53.66
2018-02-24T01:23:00.507Z,54.28
2018-02-24T01:28:02.617Z,54.26
2018-02-24T01:33:04.693Z,54.38
2018-02-24T01:38:06.097Z,54.25
2018-02-24T01:43:07.469Z,54.43
2018-02-24T01:48:08.799Z,54.46
2018-02-24T01:53:10.855Z,54.24
2018-02-24T01:58:12.172Z,54.15
2018-02-24T02:03:13.562Z,54.27
2018-02-24T02:08:15.000Z,54.10
2018-02-24T02:13:16.484Z,54.42
2018-02-24T02:18:17.865Z,54.48
2018-02-24T02:23:20.045Z,53.95
2018-02-24T02:28:21.493Z,54.06
2018-02-24T02:33:22.902Z,53.98
2018-02-24T02:38:24.301Z,53.85
2018-02-24T02:43:25.648Z,54.07
2018-02-24T02:48:27.005Z,54.02
2018-02-24T02:53:28.311Z,54.48
2018-02-24T02:58:30.413Z,54.72
2018-02-24T03:03:32.491Z,54.58
2018-02-24T03:08:33.855Z,54.68
2018-02-24T03:13:35.193Z,55.11
2018-02-24T03:18:36.528Z,55.13
2018-02-24T03:23:37.920Z,55.36
2018-02-24T03:28:39.289Z,55.48
2018-02-24T03:33:40.721Z,55.83
2018-02-24T03:38:42.088Z,55.99
2018-02-24T03:43:43.444Z,55.93
2018-02-24T03:48:44.812Z,55.97
2018-02-24T03:53:46.156Z,56.37
2018-02-24T03:58:47.537Z,56.58
2018-02-24T04:03:48.862Z,56.69
2018-02-24T04:08:50.238Z,56.99
2018-02-24T04:13:51.610Z,57.06
2018-02-24T04:18:52.967Z,57.16
2018-02-24T04:23:55.080Z,57.19
2018-02-24T04:28:57.223Z,56.70
2018-02-24T04:33:58.579Z,56.85
2018-02-24T04:38:59.900Z,56.52
2018-02-24T04:44:01.266Z,56.24
2018-02-24T04:49:03.375Z,56.44
2018-02-24T04:54:04.719Z,56.51
2018-02-24T04:59:06.045Z,56.33
2018-02-24T05:04:08.123Z,56.30
2018-02-24T05:09:09.477Z,56.08
2018-02-24T05:14:10.818Z,56.07
2018-02-24T05:19:12.172Z,55.71
2018-02-24T05:24:13.493Z,55.46
2018-02-24T05:29:14.956Z,55.93
2018-02-24T05:34:16.335Z,56.13
2018-02-24T05:39:19.189Z,56.46
2018-02-24T05:44:22.290Z,56.73
2018-02-24T05:49:23.772Z,57.11
2018-02-24T05:54:25.325Z,57.29
2018-02-24T05:59:26.718Z,57.71
2018-02-24T06:04:28.086Z,58.32
2018-02-24T06:09:29.415Z,58.86
2018-02-24T06:14:31.555Z,58.97
2018-02-24T06:19:32.936Z,60.08
2018-02-24T06:24:34.263Z,60.29
2018-02-24T06:29:35.656Z,60.35
2018-02-24T06:34:37.040Z,60.35
2018-02-24T06:39:38.482Z,60.22
2018-02-24T06:44:40.605Z,59.56
2018-02-24T06:49:41.956Z,59.85
2018-02-24T06:54:43.370Z,59.64
2018-02-24T06:59:46.232Z,59.49
2018-02-24T07:04:47.725Z,59.25
2018-02-24T07:09:49.891Z,59.04
2018-02-24T07:14:51.367Z,58.70
2018-02-24T07:19:52.780Z,58.87
2018-02-24T07:24:54.220Z,58.66
2018-02-24T07:29:55.609Z,58.30
2018-02-24T07:34:57.095Z,57.87
2018-02-24T07:39:58.600Z,57.42
2018-02-24T07:45:00.520Z,57.23
2018-02-24T07:50:02.595Z,57.11
2018-02-24T07:55:03.981Z,57.01
2018-02-24T08:00:05.625Z,56.79
2018-02-24T08:05:07.040Z,57.22
2018-02-24T08:10:09.355Z,57.28
2018-02-24T08:15:10.717Z,57.26
2018-02-24T08:20:12.151Z,57.47
2018-02-24T08:25:13.539Z,57.30
2018-02-24T08:30:15.048Z,57.55
2018-02-24T08:35:16.626Z,57.42
2018-02-24T08:40:17.946Z,57.80
2018-02-24T08:45:19.272Z,56.75
2018-02-24T08:50:21.396Z,57.33
2018-02-24T08:55:22.771Z,57.91
2018-02-24T09:00:24.199Z,58.15
2018-02-24T09:05:25.660Z,57.49
2018-02-24T09:10:27.066Z,57.62
2018-02-24T09:15:29.192Z,57.25
2018-02-24T09:20:30.553Z,58.09
2018-02-24T09:25:32.656Z,57.91
2018-02-24T09:30:34.723Z,57.47
2018-02-24T09:35:36.064Z,57.22
2018-02-24T09:40:38.184Z,57.46
2018-02-24T09:45:39.507Z,57.72
2018-02-24T09:50:40.897Z,57.68
2018-02-24T09:55:42.296Z,57.40
2018-02-24T10:00:43.659Z,57.25
2018-02-24T10:05:45.020Z,55.85
2018-02-24T10:10:47.114Z,55.81
2018-02-24T10:15:48.434Z,56.52
2018-02-24T10:20:49.989Z,56.23
2018-02-24T10:25:51.899Z,55.59
2018-02-24T10:30:53.332Z,56.04
2018-02-24T10:35:54.711Z,55.35
2018-02-24T10:40:56.147Z,55.49
2018-02-24T10:45:57.519Z,55.17
2018-02-24T10:51:00.410Z,55.22
2018-02-24T10:56:04.762Z,54.32
2018-02-24T11:01:09.290Z,54.41
2018-02-24T11:06:12.641Z,54.64
2018-02-24T11:11:16.026Z,54.40
2018-02-24T11:16:19.464Z,54.74
2018-02-24T11:21:23.582Z,55.29
2018-02-24T11:26:27.800Z,54.70
2018-02-24T11:31:32.982Z,54.06
2018-02-24T11:36:40.156Z,52.55
2018-02-24T11:41:43.008Z,52.09
2018-02-24T11:46:52.064Z,52.79
2018-02-24T11:51:53.477Z,49.14
2018-02-24T11:56:54.843Z,47.26
2018-02-24T12:01:56.233Z,47.98
2018-02-24T12:06:57.590Z,47.56
2018-02-24T12:11:58.991Z,47.35
2018-02-24T12:17:01.104Z,46.33
2018-02-24T12:22:03.278Z,46.34
2018-02-24T12:27:04.707Z,44.30
2018-02-24T12:32:06.895Z,42.43
2018-02-24T12:37:09.300Z,43.75
2018-02-24T12:42:11.267Z,44.16
2018-02-24T12:47:12.767Z,45.04
2018-02-24T12:52:14.119Z,44.64
2018-02-24T12:57:15.512Z,43.55
2018-02-24T13:02:18.415Z,43.51
2018-02-24T13:07:19.902Z,42.06
2018-02-24T13:12:21.286Z,41.77
2018-02-24T13:17:22.684Z,42.30
2018-02-24T13:22:24.050Z,39.80
2018-02-24T13:27:26.065Z,40.25
2018-02-24T13:32:28.488Z,39.21
2018-02-24T13:37:30.725Z,39.46
2018-02-24T13:42:32.161Z,38.99
2018-02-24T13:47:33.532Z,39.58
2018-02-24T13:52:34.902Z,38.91
2018-02-24T13:57:36.285Z,39.32
2018-02-24T14:02:37.652Z,39.91
2018-02-24T14:07:39.036Z,38.15
2018-02-24T14:12:40.482Z,38.70
2018-02-24T14:17:41.843Z,38.67
2018-02-24T14:22:43.196Z,39.06
2018-02-24T14:27:44.591Z,39.79
2018-02-24T14:32:45.990Z,39.15
2018-02-24T14:37:47.363Z,39.35
2018-02-24T14:42:49.076Z,39.33
2018-02-24T14:47:50.456Z,39.57
2018-02-24T14:52:51.927Z,40.22
2018-02-24T14:57:53.404Z,40.62
2018-02-24T15:02:55.485Z,41.33
2018-02-24T15:07:56.951Z,41.26
2018-02-24T15:12:58.361Z,41.29
2018-02-24T15:17:59.735Z,42.00
2018-02-24T15:23:01.170Z,41.97
2018-02-24T15:28:03.287Z,41.08
2018-02-24T15:33:05.448Z,40.22
2018-02-24T15:38:07.350Z,40.39
2018-02-24T15:43:08.811Z,40.96
2018-02-24T15:48:12.057Z,41.23
2018-02-24T15:53:14.024Z,41.63
2018-02-24T15:58:16.236Z,41.39
2018-02-24T16:03:17.757Z,41.20
2018-02-24T16:08:19.187Z,42.19
2018-02-24T16:13:20.578Z,42.33
2018-02-24T16:18:21.937Z,42.52
2018-02-24T16:23:23.337Z,42.59
2018-02-24T16:28:24.715Z,41.84
2018-02-24T16:33:26.091Z,40.90
2018-02-24T16:38:27.527Z,40.33
2018-02-24T16:43:28.914Z,41.16
2018-02-24T16:48:30.288Z,41.97
2018-02-24T16:53:31.641Z,42.26
2018-02-24T16:58:33.772Z,42.41
2018-02-24T17:03:35.088Z,42.25
2018-02-24T17:08:36.447Z,41.68
2018-02-24T17:13:37.792Z,41.27
2018-02-24T17:18:39.220Z,41.21
2018-02-24T17:23:40.564Z,41.44
2018-02-24T17:28:41.899Z,42.00
2018-02-24T17:33:43.260Z,42.38
2018-02-24T17:38:44.637Z,42.58
2018-02-24T17:43:46.015Z,42.37
2018-02-24T17:48:47.452Z,42.11
2018-02-24T17:53:49.624Z,42.28
2018-02-24T17:58:51.000Z,42.21
2018-02-24T18:03:52.372Z,42.39
2018-02-24T18:08:53.737Z,43.33
2018-02-24T18:13:55.808Z,43.11
2018-02-24T18:18:57.665Z,43.41
2018-02-24T18:23:59.116Z,43.73
2018-02-24T18:29:00.832Z,44.15
2018-02-24T18:34:02.233Z,44.60
2018-02-24T18:39:03.700Z,44.91
2018-02-24T18:44:05.844Z,45.54
2018-02-24T18:49:07.176Z,45.35
2018-02-24T18:54:08.620Z,45.96
2018-02-24T18:59:09.990Z,45.72
2018-02-24T19:04:11.370Z,45.89
2018-02-24T19:09:13.450Z,46.19
2018-02-24T19:14:14.807Z,46.62
2018-02-24T19:19:16.831Z,46.89
2018-02-24T19:24:18.173Z,47.64
2018-02-24T19:29:27.405Z,47.54
2018-02-24T19:34:28.781Z,47.24
2018-02-24T19:39:30.197Z,47.29
2018-02-24T19:44:31.560Z,46.93
2018-02-24T19:49:32.959Z,47.10
2018-02-24T19:54:34.289Z,47.53
2018-02-24T19:59:35.641Z,47.73
2018-02-24T20:04:38.131Z,47.94
2018-02-24T20:09:39.503Z,48.08
2018-02-24T20:14:42.573Z,47.85
2018-02-24T20:19:44.159Z,48.24
2018-02-24T20:24:45.555Z,48.53
2018-02-24T20:29:47.068Z,48.69
2018-02-24T20:34:48.473Z,48.87
2018-02-24T20:39:49.825Z,48.88
2018-02-24T20:44:51.188Z,48.04
2018-02-24T20:49:52.514Z,48.02
2018-02-24T20:54:53.976Z,47.51
2018-02-24T20:59:55.357Z,48.02
2018-02-24T21:04:57.450Z,47.46
2018-02-24T21:09:58.862Z,47.30
2018-02-24T21:15:00.207Z,47.43
2018-02-24T21:20:01.572Z,47.45
2018-02-24T21:25:03.010Z,47.13
2018-02-24T21:30:04.360Z,47.18
2018-02-24T21:35:05.693Z,47.39
2018-02-24T21:40:07.824Z,47.21
2018-02-24T21:45:15.993Z,47.34
2018-02-24T21:50:17.380Z,47.61
2018-02-24T21:55:18.792Z,47.61
2018-02-24T22:00:20.177Z,47.37
2018-02-24T22:05:21.561Z,47.93
2018-02-24T22:10:23.112Z,47.89
2018-02-24T22:15:25.220Z,48.37
2018-02-24T22:20:27.356Z,47.93
2018-02-24T22:25:28.727Z,48.40
2018-02-24T22:30:30.815Z,48.51
2018-02-24T22:35:32.172Z,48.66
2018-02-24T22:40:33.511Z,49.19
2018-02-24T22:45:35.596Z,49.46
2018-02-24T22:50:36.931Z,49.99
2018-02-24T22:55:38.364Z,49.89
2018-02-24T23:00:39.742Z,50.07
2018-02-24T23:05:41.117Z,50.68
2018-02-24T23:10:42.506Z,50.64
2018-02-24T23:15:43.938Z,51.06
2018-02-24T23:20:45.302Z,51.31
2018-02-24T23:25:46.702Z,51.42
2018-02-24T23:30:48.072Z,51.42
2018-02-24T23:35:49.430Z,51.32
2018-02-24T23:40:51.538Z,51.41
2018-02-24T23:45:53.626Z,51.82
2018-02-24T23:50:54.961Z,52.39
2018-02-24T23:55:56.962Z,52.07
